Latest Weather Observations for Mount Ginini

IDN60901

Issued at 11:31 am EST Tuesday 30 May 2017 (issued every 10 minutes, with the page automatically refreshed every 10 minutes)

About weather observations | Map of Canberra area stations | Latest observations for Canberra area | Other Formats
Station Details ID: 070349 Name: MOUNT GININI AWS Lat: -35.53 Lon: 148.77 Height: 1760.0 m
Data from the previous 72 hours. | See also: Recent months at Mount Ginini
Date/Time
EST
Temp
°C
App
Temp
°C
Dew
Point
°C
Rel
Hum
%
Delta-T
°C
Wind Press
QNH
hPa
Press
MSL
hPa
Rain since
9am
mm
Dir  Spd
km/h
Gust
km/h
Spd
kts
Gust
kts
30/11:30am 0.0 -6.2 -0.1 99 0.0 WSW 22 35 12 19 - - 0.0
30/11:00am -0.2 -6.0 -0.3 99 0.0 WSW 20 37 11 20 - - 0.0
30/10:30am -0.5 -6.2 -0.6 99 0.0 SW 19 37 10 20 - - 0.0
30/10:00am -0.9 -6.6 -1.0 99 0.0 WSW 19 37 10 20 - - 0.0
30/09:30am -1.5 -6.6 -1.6 99 0.0 WSW 15 28 8 15 - - 0.0
30/09:00am -1.5 -7.5 -1.6 99 0.0 WSW 20 39 11 21 - - 1.8
30/08:30am -1.6 -7.6 -1.7 99 0.0 SW 20 33 11 18 - - 1.8
30/08:00am -2.3 -8.8 -2.4 99 -0.1 SW 22 37 12 20 - - 1.8
30/07:30am -2.3 -8.4 -2.4 99 -0.1 SW 20 41 11 22 - - 1.8
30/07:00am -2.6 -8.2 -2.7 99 -0.1 SW 17 33 9 18 - - 1.8
30/06:30am -2.7 -8.7 -2.8 99 -0.1 SW 19 30 10 16 - - 1.8
30/06:00am -2.7 -8.7 -2.8 99 -0.1 SW 19 33 10 18 - - 1.8
30/05:30am -2.7 -8.3 -2.8 99 -0.1 SW 17 30 9 16 - - 1.8
30/05:00am -2.8 -8.4 -2.9 99 -0.1 WSW 17 26 9 14 - - 1.8
30/04:30am -2.9 -8.5 -3.0 99 -0.1 SW 17 28 9 15 - - 1.8
30/04:00am -2.9 -8.1 -3.0 99 -0.1 SW 15 26 8 14 - - 1.8
30/03:30am -3.0 -7.9 -3.1 99 -0.1 SW 13 24 7 13 - - 1.8
30/03:00am -3.0 -8.6 -3.1 99 -0.1 SW 17 28 9 15 - - 1.8
30/02:30am -3.0 -8.6 -3.1 99 -0.1 SW 17 28 9 15 - - 1.8
30/02:00am -3.1 -9.7 -3.2 99 -0.1 SW 22 33 12 18 - - 1.8
30/01:30am -3.2 -8.8 -3.3 99 -0.1 SW 17 30 9 16 - - 1.8
30/01:00am -3.4 -9.5 -3.5 99 -0.1 SW 19 33 10 18 - - 1.8
30/12:30am -3.5 -9.6 -3.8 98 -0.1 WSW 19 32 10 17 - - 1.8
30/12:00am -3.6 -9.3 -3.9 98 -0.1 SW 17 28 9 15 - - 1.8
 
Date/Time
EST
Temp
°C
App
Temp
°C
Dew
Point
°C
Rel
Hum
%
Delta-T
°C
Wind Press
QNH
hPa
Press
MSL
hPa
Rain since
9am
mm
Dir  Spd
km/h
Gust
km/h
Spd
kts
Gust
kts
29/11:30pm -3.7 -9.8 -4.0 98 -0.1 WSW 19 28 10 15 - - 1.8
29/11:00pm -3.6 -9.9 -3.9 98 -0.1 SW 20 30 11 16 - - 1.8
29/10:30pm -3.7 -10.0 -4.0 98 -0.1 SW 20 32 11 17 - - 1.8
29/10:00pm -3.9 -10.0 -4.2 98 -0.1 SW 19 26 10 14 - - 1.8
29/09:30pm -3.7 -9.8 -4.0 98 -0.1 SW 19 28 10 15 - - 1.8
29/09:00pm -3.7 -8.7 -4.0 98 -0.1 SSW 13 20 7 11 - - 1.8
29/08:30pm -4.0 -10.1 -4.3 98 -0.1 SSW 19 30 10 16 - - 1.8
29/08:00pm -4.0 -9.0 -4.3 98 -0.1 SSW 13 20 7 11 - - 1.8
29/07:30pm -3.9 -9.3 -4.2 98 -0.1 SSW 15 24 8 13 - - 1.8
29/07:00pm -3.7 -8.7 -4.0 98 -0.1 SSW 13 28 7 15 - - 1.8
29/06:30pm -3.8 -10.9 -4.1 98 -0.1 SSW 24 35 13 19 - - 1.8
29/06:00pm -3.7 -11.1 -4.0 98 -0.1 SSW 26 37 14 20 - - 1.8
29/05:30pm -3.6 -9.9 -3.9 98 -0.1 SSW 20 35 11 19 - - 1.8
29/05:00pm -3.3 -9.6 -3.6 98 0.0 SW 20 35 11 19 - - 1.8
29/04:30pm -2.8 -9.0 -3.1 98 0.0 SW 20 32 11 17 - - 1.8
29/04:00pm -2.5 -9.0 -2.8 98 0.0 SW 22 37 12 20 - - 1.8
29/03:30pm -2.5 -8.7 -2.8 98 0.0 WSW 20 33 11 18 - - 1.8
29/03:00pm -2.5 -8.4 -2.6 99 -0.1 WSW 19 32 10 17 - - 1.8
29/02:30pm -1.5 -6.9 -1.6 99 0.0 WSW 17 28 9 15 - - 1.8
29/02:00pm -1.3 -6.3 -1.4 99 0.0 WSW 15 32 8 17 - - 1.8
29/01:30pm -1.2 -6.2 -1.3 99 0.0 WSW 15 30 8 16 - - 1.8
29/01:00pm -1.3 -6.7 -1.4 99 0.0 WSW 17 30 9 16 - - 1.8
29/12:30pm -1.7 -6.8 -1.8 99 0.0 WSW 15 28 8 15 - - 1.8
29/12:00pm -2.0 -6.4 -2.1 99 -0.1 SW 11 24 6 13 - - 1.8
29/11:30am -2.1 -6.5 -2.2 99 -0.1 SW 11 22 6 12 - - 1.6
29/11:00am -2.2 -6.6 -2.5 98 0.0 SW 11 19 6 10 - - 0.8
29/10:30am -2.6 -7.1 -2.9 98 0.0 SW 11 20 6 11 - - 0.0
29/10:00am -3.0 -7.9 -3.3 98 0.0 SW 13 19 7 10 - - 0.0
29/09:30am -2.9 -7.8 -3.2 98 0.0 WSW 13 22 7 12 - - 0.0
29/09:00am -3.6 -9.3 -3.9 98 -0.1 SW 17 26 9 14 - - 9.0
29/08:30am -3.7 -8.7 -4.0 98 -0.1 WSW 13 22 7 12 - - 8.6
29/08:00am -3.9 -8.9 -4.2 98 -0.1 SW 13 22 7 12 - - 8.6
29/07:30am -4.2 -9.2 -4.5 98 -0.1 SW 13 20 7 11 - - 8.4
29/07:00am -4.4 -9.4 -4.7 98 -0.1 SW 13 22 7 12 - - 8.4
29/06:30am -4.1 -9.1 -4.4 98 -0.1 WSW 13 26 7 14 - - 8.4
29/06:00am -4.0 -8.6 -4.3 98 -0.1 SW 11 20 6 11 - - 8.4
29/05:30am -4.1 -9.5 -4.4 98 -0.1 WSW 15 30 8 16 - - 8.4
29/05:00am -4.0 -10.3 -4.4 97 0.0 WSW 20 39 11 21 - - 8.4
29/04:30am -3.5 -8.8 -3.9 97 0.0 WSW 15 30 8 16 - - 8.4
29/04:00am -3.4 -8.3 -3.8 97 0.0 WSW 13 32 7 17 - - 8.4
29/03:30am -3.4 -9.1 -3.8 97 0.0 W 17 33 9 18 - - 8.4
29/03:00am -3.0 -9.0 -3.4 97 0.0 WSW 19 39 10 21 - - 8.4
29/02:30am -2.7 -8.9 -3.1 97 0.0 W 20 41 11 22 - - 8.2
29/02:00am -2.5 -8.7 -2.9 97 0.0 W 20 46 11 25 - - 7.8
29/01:30am -2.4 -8.0 -2.8 97 0.0 W 17 33 9 18 - - 7.6
29/01:00am -2.2 -8.1 -2.6 97 0.0 W 19 43 10 23 - - 7.2
29/12:30am -2.2 -8.1 -2.6 97 0.0 W 19 35 10 19 - - 7.2
29/12:00am -2.0 -8.5 -2.4 97 0.1 W 22 43 12 23 - - 7.0
 
Date/Time
EST
Temp
°C
App
Temp
°C
Dew
Point
°C
Rel
Hum
%
Delta-T
°C
Wind Press
QNH
hPa
Press
MSL
hPa
Rain since
9am
mm
Dir  Spd
km/h
Gust
km/h
Spd
kts
Gust
kts
28/11:30pm -1.7 -7.6 -2.1 97 0.1 W 19 43 10 23 - - 6.6
28/11:00pm -1.3 -7.7 -1.7 97 0.1 W 22 41 12 22 - - 6.2
28/10:30pm -1.5 -7.9 -1.9 97 0.1 W 22 43 12 23 - - 5.6
28/10:00pm -1.4 -7.4 -1.8 97 0.1 W 20 37 11 20 - - 5.0
28/09:30pm -1.4 -7.4 -1.8 97 0.1 W 20 43 11 23 - - 4.2
28/09:00pm -1.3 -6.7 -1.7 97 0.1 W 17 30 9 16 - - 3.2
28/08:30pm -1.5 -7.9 -1.9 97 0.1 W 22 52 12 28 - - 2.8
28/08:00pm -1.3 -7.3 -1.7 97 0.1 W 20 43 11 23 - - 2.6
28/07:30pm -0.8 -6.6 -1.2 97 0.1 W 19 39 10 21 - - 2.2
28/07:00pm -0.6 -6.9 -1.0 97 0.1 WNW 22 41 12 22 - - 2.0
28/06:30pm -0.6 -7.3 -1.0 97 0.1 W 24 50 13 27 - - 1.8
28/06:00pm -0.6 -7.3 -1.0 97 0.1 WNW 24 50 13 27 - - 1.4
28/05:30pm -0.7 -7.0 -1.1 97 0.1 W 22 46 12 25 - - 1.4
28/05:00pm -0.2 -6.4 -0.6 97 0.1 W 22 56 12 30 - - 1.4
28/04:30pm -0.1 -6.7 -0.5 97 0.2 W 24 46 13 25 - - 1.2
28/04:00pm 0.5 -6.0 0.1 97 0.2 WNW 24 56 13 30 - - 1.2
28/03:30pm 0.5 -6.0 0.1 97 0.2 W 24 48 13 26 - - 1.2
28/03:00pm 0.9 -5.2 0.5 97 0.2 W 22 43 12 23 - - 1.2
28/02:30pm 1.1 -6.9 0.7 97 0.2 WNW 32 57 17 31 - - 1.2
28/02:17pm 1.2 -6.0 0.8 97 0.2 WNW 28 56 15 30 - - 1.2
28/02:00pm 1.3 -5.5 0.9 97 0.2 W 26 63 14 34 - - 1.2
28/01:30pm 1.5 -5.6 1.1 97 0.2 WNW 28 61 15 33 - - 1.2
28/01:05pm 1.5 -5.6 1.2 98 0.1 WNW 28 52 15 28 - - 1.2
28/01:00pm 1.6 -5.1 1.3 98 0.1 WNW 26 52 14 28 - - 1.2
28/12:30pm 1.8 -5.3 1.5 98 0.1 W 28 57 15 31 - - 1.2
28/12:07pm 2.0 -5.0 1.7 98 0.1 WNW 28 46 15 25 - - 1.2
28/12:00pm 2.0 -4.7 1.7 98 0.1 WNW 26 50 14 27 - - 1.2
28/11:53am 2.1 -4.9 1.8 98 0.1 WNW 28 50 15 27 - - 1.2
28/11:30am 2.2 -4.4 1.9 98 0.1 WNW 26 44 14 24 - - 1.2
28/11:15am 2.1 -4.9 1.8 98 0.1 WNW 28 56 15 30 - - 1.2
28/11:00am 2.2 -3.7 1.9 98 0.1 WNW 22 46 12 25 - - 1.2
28/10:30am 2.3 -3.9 2.0 98 0.1 WNW 24 44 13 24 - - 1.2
28/10:05am 2.2 -4.8 1.9 98 0.1 WNW 28 46 15 25 - - 1.2
28/10:00am 2.2 -4.0 1.9 98 0.1 WNW 24 48 13 26 - - 1.2
28/09:39am 2.0 -5.0 1.7 98 0.1 WNW 28 61 15 33 - - 1.0
28/09:30am 2.2 -3.7 1.9 98 0.1 WNW 22 39 12 21 - - 0.6
28/09:00am 2.5 -3.7 2.2 98 0.1 WNW 24 44 13 24 - - 1.4
28/08:30am 2.6 -4.0 2.3 98 0.1 WNW 26 54 14 29 - - 1.0
28/08:00am 2.5 -3.3 2.2 98 0.1 WNW 22 48 12 26 - - 1.0
28/07:30am 2.4 -3.8 2.1 98 0.1 NW 24 48 13 26 - - 0.8
28/07:00am 1.9 -4.4 1.6 98 0.1 WNW 24 46 13 25 - - 0.2
28/06:34am 2.7 -4.2 2.4 98 0.1 NW 28 54 15 29 - - 0.0
28/06:30am 2.6 -3.6 2.3 98 0.1 WNW 24 48 13 26 - - 0.0
28/06:10am 2.5 -4.5 2.2 98 0.1 WNW 28 52 15 28 - - 0.0
28/06:00am 2.5 -3.3 2.2 98 0.1 WNW 22 46 12 25 - - 0.0
28/05:30am 2.6 -4.0 2.3 98 0.1 WNW 26 48 14 26 - - 0.0
28/05:24am 2.6 -4.3 2.3 98 0.1 WNW 28 48 15 26 - - 0.0
28/05:00am 2.5 -3.7 2.2 98 0.1 WNW 24 48 13 26 - - 0.0
28/04:30am 2.4 -3.1 2.1 98 0.1 WNW 20 43 11 23 - - 0.0
28/04:00am 2.3 -3.2 2.0 98 0.1 WNW 20 39 11 21 - - 0.0
28/03:30am 2.1 -3.4 1.8 98 0.1 WNW 20 35 11 19 - - 0.0
28/03:00am 2.1 -3.8 1.8 98 0.1 WNW 22 39 12 21 - - 0.0
28/02:30am 2.1 -3.8 1.8 98 0.1 NW 22 48 12 26 - - 0.0
28/02:00am 2.1 -4.2 1.8 98 0.1 NW 24 37 13 20 - - 0.0
28/01:30am 2.2 -4.4 1.9 98 0.1 NW 26 44 14 24 - - 0.0
28/01:04am 2.4 -4.6 2.1 98 0.1 NW 28 50 15 27 - - 0.0
28/01:00am 2.2 -4.4 1.9 98 0.1 NW 26 44 14 24 - - 0.0
28/12:30am 2.0 -4.3 1.7 98 0.1 NW 24 39 13 21 - - 0.0
28/12:00am 2.4 -3.4 2.1 98 0.1 NW 22 41 12 22 - - 0.0
 
Date/Time
EST
Temp
°C
App
Temp
°C
Dew
Point
°C
Rel
Hum
%
Delta-T
°C
Wind Press
QNH
hPa
Press
MSL
hPa
Rain since
9am
mm
Dir  Spd
km/h
Gust
km/h
Spd
kts
Gust
kts
27/11:30pm 2.0 -3.9 1.6 97 0.2 NW 22 39 12 21 - - 0.0
27/11:00pm 2.0 -3.5 1.6 97 0.2 NW 20 39 11 21 - - 0.0
27/10:30pm 1.9 -3.6 1.6 98 0.1 NW 20 43 11 23 - - 0.0
27/10:00pm 2.0 -3.5 1.7 98 0.1 NW 20 33 11 18 - - 0.0
27/09:30pm 2.1 -3.2 1.8 98 0.1 NW 19 32 10 17 - - 0.0
27/09:00pm 2.3 -3.0 2.0 98 0.1 NNW 19 33 10 18 - - 0.0
27/08:30pm 2.3 -2.6 2.0 98 0.1 NNW 17 32 9 17 - - 0.0
27/08:00pm 2.6 -2.3 2.3 98 0.1 NNW 17 33 9 18 - - 0.0
27/07:30pm 2.4 -2.5 2.0 97 0.2 NW 17 26 9 14 - - 0.0
27/07:00pm 2.3 -2.6 1.7 96 0.3 NW 17 28 9 15 - - 0.0
27/06:30pm 2.3 -2.7 1.6 95 0.3 NNW 17 24 9 13 - - 0.0
27/06:00pm 2.6 -2.1 1.1 90 0.6 NW 15 22 8 12 - - 0.0
27/05:30pm 2.8 -2.0 0.0 82 1.2 NW 15 24 8 13 - - 0.0
27/05:00pm 3.3 -0.3 2.7 96 0.3 NW 11 19 6 10 - - 0.0
27/04:30pm 4.3 0.8 3.6 95 0.3 NW 11 20 6 11 - - 0.0
27/04:00pm 5.0 2.0 4.1 94 0.4 NW 9 19 5 10 - - 0.0
27/03:30pm 5.6 2.2 3.9 89 0.8 WNW 11 24 6 13 - - 0.0
27/03:00pm 6.5 4.2 5.6 94 0.4 NW 7 22 4 12 - - 0.0
27/02:30pm 5.5 2.2 4.6 94 0.4 NW 11 22 6 12 - - 0.0
27/02:00pm 6.4 3.2 5.0 91 0.7 NW 11 20 6 11 - - 0.0
27/01:30pm 5.9 2.1 4.1 88 0.9 NW 13 22 7 12 - - 0.0
27/01:00pm 6.3 3.1 5.3 93 0.5 NW 11 22 6 12 - - 0.0
27/12:30pm 5.1 2.1 4.2 94 0.4 NW 9 17 5 9 - - 0.0
27/12:00pm 5.3 1.6 4.6 95 0.3 NW 13 24 7 13 - - 0.0

Latest Capital City Observations: Canberra | Sydney | Melbourne | Brisbane | Adelaide | Perth | Hobart | Darwin

Other Formats:

Comma delimited format used in spreadsheet applications
http://www.bom.gov.au/fwo/IDN60903/IDN60903.95925.axf

JavaScript Object Notation format (JSON) in row-major order
http://www.bom.gov.au/fwo/IDN60903/IDN60903.95925.json